createdAt,value
2023-01-23T00:01:31.000Z,101865.69
2023-01-23T00:03:59.090Z,101863.13
2023-01-23T00:06:27.665Z,101859.00
2023-01-23T00:08:57.623Z,101855.53
2023-01-23T00:11:28.383Z,101859.81
2023-01-23T00:13:57.611Z,101863.16
2023-01-23T00:16:27.203Z,101861.47
2023-01-23T00:18:55.464Z,101863.06
2023-01-23T00:21:25.404Z,101861.63
2023-01-23T00:23:56.413Z,101864.34
2023-01-23T00:26:27.692Z,101865.78
2023-01-23T00:28:56.573Z,101868.53
2023-01-23T00:31:26.153Z,101873.41
2023-01-23T00:33:56.527Z,101864.09
2023-01-23T00:36:25.129Z,101869.97
2023-01-23T00:38:56.158Z,101857.38
2023-01-23T00:41:26.119Z,101866.66
2023-01-23T00:43:55.054Z,101865.63
2023-01-23T00:46:25.439Z,101872.81
2023-01-23T00:48:53.331Z,101866.69
2023-01-23T00:51:21.093Z,101868.34
2023-01-23T00:53:49.248Z,101866.75
2023-01-23T00:56:17.218Z,101872.66
2023-01-23T00:58:46.706Z,101877.72
2023-01-23T01:01:15.343Z,101870.75
2023-01-23T01:03:43.628Z,101876.75
2023-01-23T01:06:12.290Z,101881.25
2023-01-23T01:08:40.254Z,101875.34
2023-01-23T01:11:08.668Z,101879.75
2023-01-23T01:13:36.661Z,101881.44
2023-01-23T01:16:07.100Z,101883.75
2023-01-23T01:18:37.410Z,101886.06
2023-01-23T01:21:08.258Z,101887.00
2023-01-23T01:23:36.776Z,101889.56
2023-01-23T01:26:05.869Z,101881.81
2023-01-23T01:28:34.923Z,101873.25
2023-01-23T01:31:08.250Z,101885.06
2023-01-23T01:33:37.927Z,101882.44
2023-01-23T01:36:10.106Z,101879.94
2023-01-23T01:38:38.475Z,101888.41
2023-01-23T01:41:08.088Z,101886.94
2023-01-23T01:43:36.963Z,101888.53
2023-01-23T01:46:17.945Z,101881.97
2023-01-23T01:48:52.901Z,101892.94
2023-01-23T01:51:28.396Z,101899.81
2023-01-23T01:54:02.462Z,101900.56
2023-01-23T01:56:31.657Z,101900.63
2023-01-23T01:59:03.034Z,101902.13
2023-01-23T02:01:33.149Z,101908.31
2023-01-23T02:04:03.703Z,101904.66
2023-01-23T02:06:32.298Z,101897.66
2023-01-23T02:09:05.731Z,101895.44
2023-01-23T02:11:33.767Z,101904.25
2023-01-23T02:14:01.565Z,101916.75
2023-01-23T02:16:40.225Z,101917.53
2023-01-23T02:19:19.685Z,101921.72
2023-01-23T02:21:52.137Z,101920.22
2023-01-23T02:24:29.087Z,101916.72
2023-01-23T02:26:58.363Z,101922.03
2023-01-23T02:29:27.704Z,101925.38
2023-01-23T02:31:57.502Z,101924.50
2023-01-23T02:34:27.537Z,101921.31
2023-01-23T02:37:01.604Z,101918.47
2023-01-23T02:39:31.137Z,101920.97
2023-01-23T02:42:02.171Z,101917.63
2023-01-23T02:44:44.536Z,101922.00
2023-01-23T02:47:14.465Z,101912.47
2023-01-23T02:49:43.336Z,101921.06
2023-01-23T02:52:11.907Z,101917.53
2023-01-23T02:54:40.644Z,101914.09
2023-01-23T02:57:10.372Z,101910.66
2023-01-23T02:59:56.846Z,101904.63
2023-01-23T03:02:25.819Z,101910.56
2023-01-23T03:04:53.583Z,101918.13
2023-01-23T03:07:22.923Z,101918.09
2023-01-23T03:09:51.143Z,101926.69
2023-01-23T03:12:20.590Z,101933.72
2023-01-23T03:14:53.753Z,101936.94
2023-01-23T03:17:21.568Z,101941.38
2023-01-23T03:19:49.681Z,101941.28
2023-01-23T03:22:18.010Z,101942.94
2023-01-23T03:24:46.111Z,101936.94
2023-01-23T03:27:13.940Z,101939.44
2023-01-23T03:30:05.392Z,101934.75
2023-01-23T03:32:33.524Z,101928.69
2023-01-23T03:35:01.878Z,101924.75
2023-01-23T03:37:30.209Z,101930.44
2023-01-23T03:40:16.122Z,101918.88
2023-01-23T03:42:44.905Z,101928.84
2023-01-23T03:45:16.991Z,101934.69
2023-01-23T03:47:44.771Z,101932.50
2023-01-23T03:50:12.604Z,101938.75
2023-01-23T03:52:40.961Z,101942.84
2023-01-23T03:55:10.415Z,101932.50
2023-01-23T03:57:39.865Z,101926.19
2023-01-23T04:00:19.214Z,101948.13
2023-01-23T04:02:56.727Z,101949.63
2023-01-23T04:05:24.706Z,101947.88
2023-01-23T04:07:52.387Z,101950.06
2023-01-23T04:10:20.282Z,101942.47
2023-01-23T04:12:53.545Z,101944.00
2023-01-23T04:15:22.930Z,101942.88
2023-01-23T04:17:52.753Z,101949.34
2023-01-23T04:20:23.100Z,101948.22
2023-01-23T04:22:52.616Z,101945.00
2023-01-23T04:25:20.409Z,101938.22
2023-01-23T04:27:48.898Z,101939.00
2023-01-23T04:30:17.003Z,101940.63
2023-01-23T04:32:46.564Z,101953.56
2023-01-23T04:35:17.515Z,101939.06
2023-01-23T04:37:45.939Z,101948.53
2023-01-23T04:40:14.160Z,101953.00
2023-01-23T04:42:51.728Z,101954.47
2023-01-23T04:45:39.493Z,101953.50
2023-01-23T04:48:48.854Z,101957.75
2023-01-23T04:51:17.337Z,101951.81
2023-01-23T04:53:45.926Z,101957.81
2023-01-23T04:56:13.735Z,101955.41
2023-01-23T04:58:43.704Z,101962.44
2023-01-23T05:01:15.528Z,101961.47
2023-01-23T05:03:43.816Z,101954.63
2023-01-23T05:06:12.936Z,101956.44
2023-01-23T05:08:40.851Z,101959.88
2023-01-23T05:11:24.708Z,101964.00
2023-01-23T05:13:52.819Z,101966.69
2023-01-23T05:16:21.901Z,101970.88
2023-01-23T05:19:07.963Z,101971.75
2023-01-23T05:21:38.273Z,101981.28
2023-01-23T05:24:08.331Z,101988.78
2023-01-23T05:26:36.230Z,101987.25
2023-01-23T05:29:04.396Z,101987.56
2023-01-23T05:31:35.552Z,101996.66
2023-01-23T05:34:26.134Z,102006.81
2023-01-23T05:36:55.707Z,102001.69
2023-01-23T05:39:23.477Z,101999.13
2023-01-23T05:41:51.787Z,102002.41
2023-01-23T05:44:43.609Z,102011.88
2023-01-23T05:47:20.410Z,102013.75
2023-01-23T05:49:49.373Z,102010.44
2023-01-23T05:52:18.687Z,102015.56
2023-01-23T05:54:46.901Z,102010.13
2023-01-23T05:57:14.913Z,102004.59
2023-01-23T06:00:01.283Z,102013.69
2023-01-23T06:02:54.796Z,102022.19
2023-01-23T06:05:47.195Z,102020.50
2023-01-23T06:08:20.564Z,102017.72
2023-01-23T06:10:48.930Z,102018.22
2023-01-23T06:13:17.279Z,102019.78
2023-01-23T06:15:45.648Z,102020.78
2023-01-23T06:18:14.430Z,102024.81
2023-01-23T06:20:42.349Z,102027.31
2023-01-23T06:23:10.806Z,102019.72
2023-01-23T06:25:40.551Z,102025.91
2023-01-23T06:28:11.264Z,102024.25
2023-01-23T06:30:39.408Z,102024.53
2023-01-23T06:33:18.166Z,102025.66
2023-01-23T06:35:46.667Z,102022.75
2023-01-23T06:38:14.523Z,102035.28
2023-01-23T06:40:46.056Z,102030.88
2023-01-23T06:43:43.224Z,102033.50
2023-01-23T06:46:22.059Z,102035.09
2023-01-23T06:48:51.168Z,102026.00
2023-01-23T06:51:19.155Z,102031.78
2023-01-23T06:53:48.575Z,102036.22
2023-01-23T06:56:19.048Z,102034.47
2023-01-23T06:58:49.139Z,102039.50
2023-01-23T07:01:26.413Z,102038.53
2023-01-23T07:04:03.398Z,102034.25
2023-01-23T07:06:32.920Z,102030.84
2023-01-23T07:09:01.390Z,102024.09
2023-01-23T07:11:31.161Z,102029.94
2023-01-23T07:13:59.151Z,102027.19
2023-01-23T07:16:28.746Z,102040.63
2023-01-23T07:18:58.912Z,102045.53
2023-01-23T07:21:26.915Z,102051.69
2023-01-23T07:23:54.966Z,102053.38
2023-01-23T07:26:22.661Z,102061.13
2023-01-23T07:28:53.176Z,102071.13
2023-01-23T07:31:21.318Z,102070.84
2023-01-23T07:33:49.217Z,102077.31
2023-01-23T07:36:18.429Z,102079.19
2023-01-23T07:38:46.415Z,102080.94
2023-01-23T07:41:14.163Z,102091.09
2023-01-23T07:43:41.877Z,102093.59
2023-01-23T07:46:11.547Z,102093.91
2023-01-23T07:48:39.801Z,102102.31
2023-01-23T07:51:08.126Z,102099.31
2023-01-23T07:53:35.972Z,102110.34
2023-01-23T07:56:06.470Z,102118.16
2023-01-23T07:58:34.569Z,102113.78
2023-01-23T08:01:09.315Z,102122.19
2023-01-23T08:03:38.759Z,102121.75
2023-01-23T08:06:07.316Z,102118.84
2023-01-23T08:08:35.367Z,102122.25
2023-01-23T08:11:05.400Z,102125.41
2023-01-23T08:13:33.356Z,102124.44
2023-01-23T08:16:01.435Z,102126.72
2023-01-23T08:18:31.771Z,102123.44
2023-01-23T08:21:02.916Z,102128.41
2023-01-23T08:23:32.937Z,102130.19
2023-01-23T08:26:03.521Z,102120.88
2023-01-23T08:28:31.604Z,102118.59
2023-01-23T08:31:01.790Z,102113.19
2023-01-23T08:33:29.870Z,102102.50
2023-01-23T08:36:01.449Z,102113.22
2023-01-23T08:38:29.319Z,102111.44
2023-01-23T08:41:00.988Z,102112.31
2023-01-23T08:46:32.262Z,102113.28
2023-01-23T08:49:00.717Z,102111.66
2023-01-23T08:51:30.293Z,102112.41
2023-01-23T08:53:58.157Z,102114.41
2023-01-23T08:56:26.915Z,102110.88
2023-01-23T08:58:54.763Z,102117.00
2023-01-23T09:01:24.560Z,102121.16
2023-01-23T09:03:52.529Z,102123.34
2023-01-23T09:06:22.330Z,102129.97
2023-01-23T09:08:52.163Z,102122.88
2023-01-23T09:11:20.294Z,102114.56
2023-01-23T09:13:48.420Z,102117.81
2023-01-23T09:16:16.702Z,102122.31
2023-01-23T09:18:45.145Z,102113.41
2023-01-23T09:21:15.578Z,102119.47
2023-01-23T09:23:43.908Z,102118.59
2023-01-23T09:26:15.040Z,102116.13
2023-01-23T09:28:44.496Z,102114.00
2023-01-23T09:31:14.315Z,102120.13
2023-01-23T09:33:42.551Z,102123.69
2023-01-23T09:36:11.404Z,102122.94
2023-01-23T09:38:39.184Z,102131.03
2023-01-23T09:41:17.286Z,102128.00
2023-01-23T09:43:54.037Z,102132.03
2023-01-23T09:46:25.845Z,102137.41
2023-01-23T09:49:00.098Z,102130.28
2023-01-23T09:51:32.265Z,102131.31
2023-01-23T09:54:08.747Z,102129.50
2023-01-23T09:56:45.023Z,102138.22
2023-01-23T09:59:18.707Z,102139.00
2023-01-23T10:01:46.599Z,102138.22
2023-01-23T10:04:18.189Z,102142.63
2023-01-23T10:07:05.531Z,102142.00
2023-01-23T10:09:55.556Z,102136.50
2023-01-23T10:12:39.016Z,102149.63
2023-01-23T10:15:24.965Z,102150.50
2023-01-23T10:18:03.212Z,102142.00
2023-01-23T10:20:50.997Z,102134.59
2023-01-23T10:23:46.715Z,102135.31
2023-01-23T10:26:20.039Z,102130.91
2023-01-23T10:28:49.812Z,102122.75
2023-01-23T10:31:29.987Z,102121.59
2023-01-23T10:34:07.776Z,102123.06
2023-01-23T10:36:54.003Z,102123.09
2023-01-23T10:39:28.279Z,102111.00
2023-01-23T10:42:02.090Z,102115.75
2023-01-23T10:44:31.808Z,102117.28
2023-01-23T10:47:04.498Z,102124.44
2023-01-23T10:49:35.522Z,102125.09
2023-01-23T10:52:03.956Z,102128.03
2023-01-23T10:54:33.536Z,102140.03
2023-01-23T10:57:03.447Z,102135.25
2023-01-23T10:59:39.448Z,102121.31
2023-01-23T11:02:22.817Z,102122.75
2023-01-23T11:04:53.140Z,102114.13
2023-01-23T11:07:23.154Z,102115.38
2023-01-23T11:09:56.702Z,102122.34
2023-01-23T11:12:27.096Z,102118.53
2023-01-23T11:15:23.843Z,102116.66
2023-01-23T11:17:53.840Z,102116.88
2023-01-23T11:20:27.385Z,102108.91
2023-01-23T11:23:05.090Z,102118.59
2023-01-23T11:25:34.917Z,102114.34
2023-01-23T11:28:17.938Z,102118.47
2023-01-23T11:31:00.879Z,102114.91
2023-01-23T11:33:42.615Z,102116.75
2023-01-23T11:36:33.052Z,102111.91
2023-01-23T11:39:07.737Z,102106.06
2023-01-23T11:41:37.267Z,102103.03
2023-01-23T11:44:10.002Z,102107.06
2023-01-23T11:46:59.337Z,102103.03
2023-01-23T11:49:45.195Z,102110.22
2023-01-23T11:52:29.319Z,102107.25
2023-01-23T11:55:13.387Z,102102.81
2023-01-23T11:57:56.714Z,102104.13
2023-01-23T12:00:34.564Z,102103.97
2023-01-23T12:03:45.498Z,102103.84
2023-01-23T12:06:37.758Z,102098.06
2023-01-23T12:09:13.277Z,102101.34
2023-01-23T12:11:56.354Z,102092.22
2023-01-23T12:14:31.878Z,102087.81
2023-01-23T12:17:17.219Z,102094.44
2023-01-23T12:20:02.058Z,102079.41
2023-01-23T12:22:41.093Z,102083.56
2023-01-23T12:25:30.800Z,102084.50
2023-01-23T12:28:05.414Z,102074.31
2023-01-23T12:30:57.889Z,102079.47
2023-01-23T12:33:41.212Z,102071.03
2023-01-23T12:36:27.895Z,102074.28
2023-01-23T12:39:10.403Z,102066.06
2023-01-23T12:41:43.180Z,102063.41
2023-01-23T12:44:15.769Z,102067.63
2023-01-23T12:46:51.440Z,102057.22
2023-01-23T12:49:27.826Z,102056.75
2023-01-23T12:52:03.199Z,102054.09
2023-01-23T12:54:38.718Z,102051.34
2023-01-23T12:57:09.353Z,102049.84
2023-01-23T12:59:54.344Z,102048.97
2023-01-23T13:02:30.317Z,102042.41
2023-01-23T13:05:11.352Z,102039.66
2023-01-23T13:07:49.628Z,102037.09
2023-01-23T13:10:51.078Z,102033.97
2023-01-23T13:13:20.095Z,102036.28
2023-01-23T13:16:04.568Z,102028.03
2023-01-23T13:18:52.612Z,102032.84
2023-01-23T13:21:38.427Z,102034.66
2023-01-23T13:24:48.399Z,102039.84
2023-01-23T13:27:45.748Z,102032.47
2023-01-23T13:30:40.112Z,102038.13
2023-01-23T13:33:55.181Z,102042.81
2023-01-23T13:36:36.359Z,102046.19
2023-01-23T13:39:28.770Z,102039.50
2023-01-23T13:42:44.815Z,102045.38
2023-01-23T13:45:31.402Z,102035.78
2023-01-23T14:21:30.361Z,102010.16
2023-01-23T14:24:03.918Z,102012.59
2023-01-23T14:26:33.833Z,102006.81
2023-01-23T14:29:04.035Z,102011.91
2023-01-23T14:31:35.113Z,102010.88
2023-01-23T14:34:10.424Z,102007.50
2023-01-23T14:36:39.443Z,102009.25
2023-01-23T14:39:07.464Z,102011.78
2023-01-23T14:41:41.573Z,102012.56
2023-01-23T14:44:19.495Z,102005.69
2023-01-23T14:46:53.262Z,102009.75
2023-01-23T14:49:27.793Z,102007.06
2023-01-23T14:51:58.137Z,102006.19
2023-01-23T14:54:29.668Z,102007.91
2023-01-23T14:57:02.518Z,102013.00
2023-01-23T14:59:35.033Z,102017.09
2023-01-23T15:02:22.237Z,102021.19
2023-01-23T15:05:08.377Z,102019.34
2023-01-23T15:07:43.316Z,102028.66
2023-01-23T15:10:15.953Z,102020.91
2023-01-23T15:12:53.557Z,102025.03
2023-01-23T15:15:24.464Z,102024.22
2023-01-23T15:17:56.037Z,102019.81
2023-01-23T15:20:38.301Z,102016.34
2023-01-23T15:23:28.236Z,102008.53
2023-01-23T15:26:25.665Z,102016.16
2023-01-23T15:28:55.147Z,102019.50
2023-01-23T15:31:29.340Z,102010.91
2023-01-23T15:34:18.033Z,102011.66
2023-01-23T15:36:52.039Z,102014.97
2023-01-23T15:39:23.052Z,102005.44
2023-01-23T15:41:53.223Z,102000.19
2023-01-23T15:44:23.102Z,102001.97
2023-01-23T15:46:51.174Z,102006.13
2023-01-23T15:49:25.769Z,102007.72
2023-01-23T15:51:56.219Z,102002.59
2023-01-23T15:54:29.181Z,102003.41
2023-01-23T15:57:07.128Z,102006.75
2023-01-23T15:59:36.661Z,102005.88
2023-01-23T16:02:04.834Z,102001.81
2023-01-23T16:04:35.109Z,101998.22
2023-01-23T16:07:07.975Z,101988.72
2023-01-23T16:09:37.986Z,101995.50
2023-01-23T16:12:08.549Z,101999.00
2023-01-23T16:14:37.238Z,102002.44
2023-01-23T16:17:16.349Z,101997.31
2023-01-23T16:19:46.742Z,101999.78
2023-01-23T16:22:18.878Z,102006.94
2023-01-23T16:24:46.750Z,102003.22
2023-01-23T16:27:19.722Z,102002.22
2023-01-23T16:29:49.435Z,102007.63
2023-01-23T16:32:17.703Z,101991.84
2023-01-23T16:34:47.818Z,101992.69
2023-01-23T16:37:17.920Z,101996.19
2023-01-23T16:39:47.538Z,101998.59
2023-01-23T16:42:22.773Z,101995.22
2023-01-23T16:44:50.884Z,102003.56
2023-01-23T16:47:19.332Z,101999.50
2023-01-23T16:49:53.646Z,102001.22
2023-01-23T16:52:25.561Z,102002.53
2023-01-23T16:54:55.303Z,102005.16
2023-01-23T16:57:24.070Z,102008.59
2023-01-23T16:59:56.101Z,102023.47
2023-01-23T17:02:28.349Z,102014.72
2023-01-23T17:04:57.741Z,102023.22
2023-01-23T17:07:25.466Z,102027.88
2023-01-23T17:09:53.587Z,102023.56
2023-01-23T17:12:27.516Z,102029.88
2023-01-23T17:14:56.875Z,102030.69
2023-01-23T17:17:30.253Z,102036.31
2023-01-23T17:20:01.105Z,102038.03
2023-01-23T17:22:31.439Z,102039.81
2023-01-23T17:24:59.766Z,102044.13
2023-01-23T17:27:27.560Z,102052.97
2023-01-23T17:29:55.541Z,102050.03
2023-01-23T17:32:30.407Z,102052.66
2023-01-23T17:35:02.968Z,102058.53
2023-01-23T17:37:31.601Z,102058.28
2023-01-23T17:39:59.368Z,102055.81
2023-01-23T17:42:27.320Z,102058.22
2023-01-23T17:44:55.573Z,102046.50
2023-01-23T17:47:23.347Z,102050.38
2023-01-23T17:49:54.402Z,102058.06
2023-01-23T17:52:25.043Z,102048.25
2023-01-23T17:54:54.284Z,102047.16
2023-01-23T17:57:22.715Z,102059.84
2023-01-23T17:59:50.467Z,102046.16
2023-01-23T18:02:27.606Z,102061.94
2023-01-23T18:04:55.427Z,102058.25
2023-01-23T18:07:24.952Z,102067.44
2023-01-23T18:09:55.469Z,102075.63
2023-01-23T18:12:31.559Z,102077.56
2023-01-23T18:15:09.659Z,102078.28
2023-01-23T18:17:43.666Z,102087.53
2023-01-23T18:20:18.934Z,102082.34
2023-01-23T18:22:48.992Z,102086.38
2023-01-23T18:25:19.174Z,102083.22
2023-01-23T18:27:50.204Z,102083.13
2023-01-23T18:30:35.607Z,102083.81
2023-01-23T18:33:39.862Z,102079.09
2023-01-23T18:36:19.212Z,102079.03
2023-01-23T18:39:03.763Z,102085.59
2023-01-23T18:41:31.737Z,102092.03
2023-01-23T18:44:07.264Z,102087.78
2023-01-23T18:46:35.549Z,102082.59
2023-01-23T18:49:04.515Z,102059.81
2023-01-23T18:51:39.713Z,102072.56
2023-01-23T18:54:21.169Z,102072.75
2023-01-23T18:56:58.710Z,102073.41
2023-01-23T18:59:38.317Z,102072.41
2023-01-23T19:02:19.209Z,102087.78
2023-01-23T19:04:56.744Z,102096.78
2023-01-23T19:07:24.937Z,102093.34
2023-01-23T19:09:55.581Z,102110.06
2023-01-23T19:12:31.412Z,102113.56
2023-01-23T19:15:09.360Z,102116.06
2023-01-23T19:17:43.722Z,102112.75
2023-01-23T19:20:23.067Z,102110.66
2023-01-23T19:23:00.790Z,102110.19
2023-01-23T19:25:30.938Z,102121.97
2023-01-23T19:28:01.087Z,102128.13
2023-01-23T19:30:29.659Z,102124.97
2023-01-23T19:32:57.387Z,102123.19
2023-01-23T19:35:25.155Z,102118.31
2023-01-23T19:37:52.860Z,102125.03
2023-01-23T19:40:20.494Z,102122.63
2023-01-23T19:42:58.839Z,102117.28
2023-01-23T19:45:34.139Z,102120.63
2023-01-23T19:48:01.820Z,102125.84
2023-01-23T19:50:30.151Z,102127.81
2023-01-23T19:53:00.095Z,102122.50
2023-01-23T19:55:30.535Z,102133.03
2023-01-23T19:58:00.217Z,102138.44
2023-01-23T20:00:30.768Z,102142.44
2023-01-23T20:02:59.082Z,102141.34
2023-01-23T20:05:28.012Z,102137.91
2023-01-23T20:07:56.239Z,102135.31
2023-01-23T20:10:24.108Z,102127.31
2023-01-23T20:12:54.099Z,102134.78
2023-01-23T20:15:25.760Z,102133.63
2023-01-23T20:17:53.792Z,102134.72
2023-01-23T20:20:22.594Z,102138.19
2023-01-23T20:22:50.782Z,102133.63
2023-01-23T20:25:19.261Z,102126.94
2023-01-23T20:27:47.246Z,102129.88
2023-01-23T20:30:17.369Z,102127.81
2023-01-23T20:32:46.994Z,102123.50
2023-01-23T20:35:14.955Z,102123.38
2023-01-23T20:37:42.983Z,102120.88
2023-01-23T20:40:12.438Z,102131.19
2023-01-23T20:42:40.997Z,102120.00
2023-01-23T20:45:09.889Z,102127.16
2023-01-23T20:47:37.637Z,102128.59
2023-01-23T20:50:07.819Z,102131.91
2023-01-23T20:52:53.742Z,102121.69
2023-01-23T20:55:21.863Z,102128.41
2023-01-23T20:58:07.438Z,102121.63
2023-01-23T21:00:35.786Z,102123.91
2023-01-23T21:03:03.884Z,102125.13
2023-01-23T21:05:33.426Z,102126.22
2023-01-23T21:08:01.499Z,102131.28
2023-01-23T21:10:29.270Z,102137.28
2023-01-23T21:12:56.944Z,102135.69
2023-01-23T21:15:24.640Z,102122.84
2023-01-23T21:17:52.477Z,102125.28
2023-01-23T21:20:20.364Z,102131.16
2023-01-23T21:22:49.465Z,102133.75
2023-01-23T21:25:17.194Z,102133.91
2023-01-23T21:27:44.878Z,102133.81
2023-01-23T21:30:13.497Z,102127.75
2023-01-23T21:32:41.163Z,102131.28
2023-01-23T21:35:10.234Z,102135.50
2023-01-23T21:37:38.338Z,102146.59
2023-01-23T21:40:09.981Z,102141.50
2023-01-23T21:42:37.719Z,102153.63
2023-01-23T21:45:05.935Z,102147.81
2023-01-23T21:47:33.852Z,102146.66
2023-01-23T21:50:01.856Z,102152.56
2023-01-23T21:52:30.224Z,102160.97
2023-01-23T21:54:57.994Z,102156.41
2023-01-23T21:57:27.563Z,102156.25
2023-01-23T22:00:24.461Z,102155.56
2023-01-23T22:02:52.338Z,102152.09
2023-01-23T22:05:20.919Z,102162.28
2023-01-23T22:07:49.226Z,102159.03
2023-01-23T22:10:17.456Z,102152.16
2023-01-23T22:12:46.670Z,102148.75
2023-01-23T22:15:14.649Z,102152.03
2023-01-23T22:17:42.648Z,102149.53
2023-01-23T22:20:12.071Z,102151.53
2023-01-23T22:22:39.997Z,102155.69
2023-01-23T22:25:08.859Z,102164.09
2023-01-23T22:27:36.602Z,102148.19
2023-01-23T22:30:06.721Z,102158.38
2023-01-23T22:32:34.979Z,102161.66
2023-01-23T22:35:02.718Z,102154.75
2023-01-23T22:37:30.620Z,102161.41
2023-01-23T22:39:58.596Z,102163.41
2023-01-23T22:42:26.310Z,102159.03
2023-01-23T22:44:54.644Z,102163.22
2023-01-23T22:47:23.872Z,102160.91
2023-01-23T22:49:51.579Z,102176.16
2023-01-23T22:52:19.834Z,102165.94
2023-01-23T22:54:47.619Z,102170.09
2023-01-23T22:57:15.354Z,102176.06
2023-01-23T22:59:43.055Z,102176.00
2023-01-23T23:02:10.818Z,102171.09
2023-01-23T23:04:40.004Z,102166.72
2023-01-23T23:07:07.838Z,102165.34
2023-01-23T23:09:35.638Z,102165.13
2023-01-23T23:12:03.413Z,102169.56
2023-01-23T23:14:31.125Z,102167.75
2023-01-23T23:16:59.414Z,102170.25
2023-01-23T23:19:27.078Z,102175.41
2023-01-23T23:21:56.357Z,102173.59
2023-01-23T23:24:24.263Z,102165.94
2023-01-23T23:26:52.557Z,102165.78
2023-01-23T23:29:20.248Z,102169.38
2023-01-23T23:31:51.396Z,102160.81
2023-01-23T23:34:19.830Z,102164.53
2023-01-23T23:36:47.609Z,102161.81
2023-01-23T23:39:16.898Z,102169.44
2023-01-23T23:41:44.560Z,102162.81
2023-01-23T23:44:12.813Z,102160.06
2023-01-23T23:46:40.539Z,102155.91
2023-01-23T23:49:08.493Z,102153.22
2023-01-23T23:51:36.410Z,102159.53
2023-01-23T23:54:04.667Z,102152.63
2023-01-23T23:56:34.057Z,102156.66
2023-01-23T23:59:01.784Z,102156.06
